Time;durP1;ratioP1;P1;durP2;ratioP2;P2;SDS_P1;SDS_P2;PMS_P1;PMS_P2;Temp;Humidity;BMP_temperature;BMP_pressure;BME280_temperature;BME280_humidity;BME280_pressure;Samples;Min_cycle;Max_cycle;Signal;HPM_P1;HPM_P2
2022/09/29 00:01:30;;;;;;;2.17;1.38;;;5.30;99.90;;;;;;5053118;28;20068;-58
2022/09/29 00:04:00;;;;;;;3.13;1.00;;;5.30;99.90;;;;;;5048464;28;20067;-58
2022/09/29 00:06:25;;;;;;;3.28;1.20;;;5.20;99.90;;;;;;5051128;28;20040;-58
2022/09/29 00:08:51;;;;;;;3.15;1.45;;;5.20;99.90;;;;;;5048533;28;20032;-58
2022/09/29 00:11:18;;;;;;;7.40;2.10;;;5.20;99.90;;;;;;5048678;28;20021;-59
2022/09/29 00:13:45;;;;;;;3.65;1.40;;;5.10;99.90;;;;;;5050584;28;20029;-58
2022/09/29 00:16:12;;;;;;;2.38;1.35;;;5.00;99.90;;;;;;5046984;28;20079;-59
2022/09/29 00:18:44;;;;;;;1.17;0.90;;;5.00;99.90;;;;;;5049381;28;20491;-59
2022/09/29 00:21:20;;;;;;;2.25;0.80;;;4.90;99.90;;;;;;5047382;28;20037;-60
2022/09/29 00:23:49;;;;;;;2.55;1.30;;;4.80;99.90;;;;;;5054774;28;20032;-58
2022/09/29 00:26:21;;;;;;;1.60;1.13;;;4.90;99.90;;;;;;5050583;28;20112;-60
2022/09/29 00:28:56;;;;;;;2.07;1.17;;;4.90;99.90;;;;;;5053244;28;20465;-59
2022/09/29 00:31:30;;;;;;;3.05;1.25;;;4.90;99.90;;;;;;5052524;28;20471;-60
2022/09/29 00:33:57;;;;;;;1.95;1.30;;;4.90;99.90;;;;;;5055548;28;20028;-58
2022/09/29 00:36:24;;;;;;;7.10;1.67;;;4.80;99.90;;;;;;5055683;28;20025;-59
2022/09/29 00:38:54;;;;;;;2.53;1.52;;;4.80;99.90;;;;;;5050838;28;20029;-59
2022/09/29 00:41:23;;;;;;;3.50;1.33;;;4.70;99.90;;;;;;5056405;28;20037;-59
2022/09/29 00:43:59;;;;;;;2.35;1.50;;;4.70;99.90;;;;;;5050493;28;20027;-59
2022/09/29 00:46:30;;;;;;;4.60;1.58;;;4.80;99.90;;;;;;5051709;28;20377;-59
2022/09/29 00:49:01;;;;;;;3.38;1.20;;;4.70;99.90;;;;;;5050751;28;20481;-59
2022/09/29 00:51:31;;;;;;;3.47;1.48;;;4.80;99.90;;;;;;5048377;28;20044;-58
2022/09/29 00:53:58;;;;;;;2.75;1.35;;;4.80;99.90;;;;;;5051483;28;20115;-58
2022/09/29 00:56:43;;;;;;;6.05;2.22;;;4.80;99.90;;;;;;5055486;28;20034;-59
2022/09/29 00:59:28;;;;;;;3.03;1.63;;;4.70;99.90;;;;;;5050966;28;20055;-59
2022/09/29 01:01:54;;;;;;;1.25;1.05;;;4.70;99.90;;;;;;5048035;28;20500;-59
2022/09/29 01:04:26;;;;;;;4.95;1.67;;;4.70;99.90;;;;;;5051399;28;20025;-59
2022/09/29 01:06:57;;;;;;;2.78;1.50;;;4.70;99.90;;;;;;5054810;28;20025;-60
2022/09/29 01:09:29;;;;;;;3.85;1.20;;;4.80;99.90;;;;;;5054681;28;20028;-60
2022/09/29 01:11:58;;;;;;;3.13;1.38;;;4.80;99.90;;;;;;5051929;28;20055;-60
2022/09/29 01:14:25;;;;;;;3.17;1.70;;;4.80;99.90;;;;;;5053589;28;20124;-60
2022/09/29 01:16:54;;;;;;;4.00;1.65;;;4.80;99.90;;;;;;5057095;28;20025;-59
2022/09/29 01:19:34;;;;;;;4.05;1.55;;;4.90;99.90;;;;;;5053389;28;20112;-58
2022/09/29 01:22:29;;;;;;;2.03;1.42;;;4.90;99.90;;;;;;5051375;28;20087;-60
2022/09/29 01:25:27;;;;;;;3.75;1.75;;;4.80;99.90;;;;;;5047926;28;20033;-58
2022/09/29 01:28:24;;;;;;;3.05;1.55;;;4.90;99.90;;;;;;5049398;28;20033;-58
2022/09/29 01:31:21;;;;;;;4.65;1.77;;;4.80;99.90;;;;;;5049005;28;20028;-59
2022/09/29 01:34:16;;;;;;;4.97;1.80;;;4.80;99.90;;;;;;5046577;28;20473;-59
2022/09/29 01:36:57;;;;;;;4.38;2.42;;;4.70;99.90;;;;;;5065473;28;20388;-59
2022/09/29 01:39:36;;;;;;;2.13;1.55;;;4.60;99.90;;;;;;5042035;28;20033;-58
2022/09/29 01:42:21;;;;;;;3.35;1.92;;;4.60;99.90;;;;;;5049143;28;20434;-59
2022/09/29 01:45:02;;;;;;;3.38;1.63;;;4.70;99.90;;;;;;5057046;28;20029;-58
2022/09/29 01:47:35;;;;;;;2.55;1.35;;;4.60;99.90;;;;;;5052551;28;20036;-59
2022/09/29 01:50:13;;;;;;;3.45;1.55;;;4.60;99.90;;;;;;5056547;28;20395;-58
2022/09/29 01:52:47;;;;;;;4.03;1.98;;;4.60;99.90;;;;;;5049703;28;20083;-58
2022/09/29 01:55:18;;;;;;;3.35;1.88;;;4.60;99.90;;;;;;5040310;28;20145;-58
2022/09/29 01:57:52;;;;;;;3.72;1.50;;;4.50;99.90;;;;;;5049210;28;20033;-59
2022/09/29 02:00:20;;;;;;;3.65;1.60;;;4.50;99.90;;;;;;5047338;28;20056;-59
2022/09/29 02:03:03;;;;;;;5.68;1.85;;;4.50;99.90;;;;;;5052295;28;20071;-59
2022/09/29 02:05:40;;;;;;;3.97;1.35;;;4.40;99.90;;;;;;5046181;28;20029;-58
2022/09/29 02:08:31;;;;;;;4.15;2.00;;;4.40;99.90;;;;;;5051596;28;20021;-59
2022/09/29 02:11:04;;;;;;;6.55;1.90;;;4.50;99.90;;;;;;5047680;28;20021;-59
2022/09/29 02:14:06;;;;;;;1.90;1.38;;;4.50;99.90;;;;;;5048127;28;20018;-58
2022/09/29 02:16:37;;;;;;;2.85;1.77;;;4.50;99.90;;;;;;5051413;28;20076;-58
2022/09/29 02:19:26;;;;;;;2.03;1.50;;;4.50;99.90;;;;;;5049315;28;20029;-58
2022/09/29 02:21:55;;;;;;;3.70;1.77;;;4.50;99.90;;;;;;5052921;28;20286;-58
2022/09/29 02:24:22;;;;;;;3.80;1.60;;;4.40;99.90;;;;;;5050987;28;20029;-58
2022/09/29 02:26:48;;;;;;;2.03;1.48;;;4.40;99.90;;;;;;5054020;28;20033;-58
2022/09/29 02:29:15;;;;;;;7.20;2.22;;;4.40;99.90;;;;;;5051518;28;20086;-58
2022/09/29 02:31:41;;;;;;;3.35;1.58;;;4.40;99.90;;;;;;5046289;28;20047;-59
2022/09/29 02:34:10;;;;;;;3.15;2.10;;;4.30;99.90;;;;;;5057700;28;20108;-58
2022/09/29 02:36:53;;;;;;;3.00;1.90;;;4.40;99.90;;;;;;5050667;28;20031;-58
2022/09/29 02:39:32;;;;;;;2.65;1.63;;;4.30;99.90;;;;;;5050790;28;20028;-58
2022/09/29 02:42:23;;;;;;;3.03;1.52;;;4.40;99.90;;;;;;5053622;28;20044;-58
2022/09/29 02:45:31;;;;;;;3.10;1.63;;;4.30;99.90;;;;;;5045797;28;20075;-58
2022/09/29 02:47:56;;;;;;;4.22;1.75;;;4.30;99.90;;;;;;5020003;28;20034;-59
2022/09/29 02:51:03;;;;;;;1.45;1.10;;;4.30;99.90;;;;;;5023491;28;20064;-58
2022/09/29 02:53:47;;;;;;;2.47;2.17;;;4.30;99.90;;;;;;4968848;28;20039;-58
2022/09/29 02:56:24;;;;;;;5.60;1.55;;;4.20;99.90;;;;;;4967940;28;20023;-58
2022/09/29 02:58:53;;;;;;;3.55;1.77;;;4.20;99.90;;;;;;4966359;28;20122;-58
2022/09/29 03:01:18;;;;;;;5.63;2.00;;;4.10;99.90;;;;;;4968853;28;20058;-58
2022/09/29 03:03:48;;;;;;;3.03;1.77;;;4.10;99.90;;;;;;4950658;28;20034;-58
2022/09/29 03:06:15;;;;;;;3.00;1.52;;;4.10;99.90;;;;;;4951420;28;20058;-58
2022/09/29 03:08:41;;;;;;;2.15;1.48;;;4.10;99.90;;;;;;4969281;28;20121;-58
2022/09/29 03:11:06;;;;;;;2.10;1.45;;;4.10;99.90;;;;;;4967284;28;20149;-58
2022/09/29 03:13:32;;;;;;;4.20;1.67;;;4.10;99.90;;;;;;4966969;28;20034;-58
2022/09/29 03:15:58;;;;;;;1.67;1.30;;;4.10;99.90;;;;;;4967485;28;20037;-57
2022/09/29 03:18:23;;;;;;;2.03;1.40;;;3.90;99.90;;;;;;4968894;28;20042;-58
2022/09/29 03:20:49;;;;;;;3.85;1.92;;;3.90;99.90;;;;;;4968278;28;20403;-58
2022/09/29 03:23:15;;;;;;;2.83;1.75;;;3.90;99.90;;;;;;4962909;28;20720;-58
2022/09/29 03:25:42;;;;;;;4.10;2.08;;;3.90;99.90;;;;;;5053441;28;20041;-58
2022/09/29 03:28:08;;;;;;;5.57;1.83;;;3.80;99.90;;;;;;5053580;28;20028;-57
2022/09/29 03:30:33;;;;;;;2.97;1.38;;;3.70;99.90;;;;;;5050704;28;20025;-57
2022/09/29 03:32:59;;;;;;;2.25;1.52;;;3.70;99.90;;;;;;5055313;28;20029;-57
2022/09/29 03:35:25;;;;;;;2.72;1.95;;;3.70;99.90;;;;;;5053682;28;20028;-57
2022/09/29 03:37:50;;;;;;;2.30;1.52;;;3.70;99.90;;;;;;5051618;28;20044;-59
2022/09/29 03:40:16;;;;;;;4.68;1.83;;;3.70;99.90;;;;;;5054535;28;20559;-59
2022/09/29 03:42:45;;;;;;;11.48;5.10;;;3.70;99.90;;;;;;5048147;28;20025;-59
2022/09/29 03:45:11;;;;;;;6.90;2.97;;;3.70;99.90;;;;;;5055752;28;20041;-60
2022/09/29 03:47:36;;;;;;;3.22;1.73;;;3.70;99.90;;;;;;5047195;28;20056;-59
2022/09/29 03:50:02;;;;;;;8.27;2.38;;;3.70;99.90;;;;;;5062103;28;20025;-59
2022/09/29 03:52:28;;;;;;;2.33;1.88;;;3.60;99.90;;;;;;5058069;28;20033;-58
2022/09/29 03:54:54;;;;;;;3.20;1.63;;;3.70;99.90;;;;;;5047887;28;20036;-60
2022/09/29 03:57:20;;;;;;;2.25;1.42;;;3.60;99.90;;;;;;5054208;28;20025;-59
2022/09/29 03:59:45;;;;;;;2.67;1.40;;;3.60;99.90;;;;;;5049325;28;20049;-59
2022/09/29 04:02:11;;;;;;;3.45;1.73;;;3.50;99.90;;;;;;5048878;28;20106;-58
2022/09/29 04:04:37;;;;;;;2.20;1.50;;;3.60;99.90;;;;;;5049399;28;20384;-59
2022/09/29 04:07:03;;;;;;;2.17;1.45;;;3.50;99.90;;;;;;5035287;28;20057;-59
2022/09/29 04:09:28;;;;;;;3.65;1.58;;;3.50;99.90;;;;;;5064692;28;20128;-58
2022/09/29 04:11:54;;;;;;;4.03;1.42;;;3.50;99.90;;;;;;5046786;28;20485;-59
2022/09/29 04:14:20;;;;;;;2.72;1.23;;;3.60;99.90;;;;;;5055646;28;20037;-59
2022/09/29 04:16:45;;;;;;;3.58;1.77;;;3.60;99.90;;;;;;5054952;28;20484;-59
2022/09/29 04:19:11;;;;;;;4.72;1.83;;;3.70;99.90;;;;;;5047584;28;20071;-58
2022/09/29 04:21:36;;;;;;;4.25;1.88;;;3.70;99.90;;;;;;5049455;28;20064;-59
2022/09/29 04:24:02;;;;;;;2.10;1.58;;;3.70;99.90;;;;;;5047164;28;20070;-59
2022/09/29 04:26:28;;;;;;;2.85;2.05;;;3.80;99.90;;;;;;5054677;28;20078;-59
2022/09/29 04:28:54;;;;;;;2.20;1.50;;;3.80;99.90;;;;;;5044573;28;20480;-59
2022/09/29 04:31:20;;;;;;;3.22;1.80;;;3.80;99.90;;;;;;5049615;28;20090;-59
2022/09/29 04:33:46;;;;;;;1.50;1.40;;;3.80;99.90;;;;;;5056243;28;20028;-59
2022/09/29 04:36:12;;;;;;;2.75;1.65;;;3.90;99.90;;;;;;5046645;28;20122;-59
2022/09/29 04:38:37;;;;;;;3.00;2.03;;;4.10;99.90;;;;;;5048945;28;20028;-59
2022/09/29 04:41:03;;;;;;;4.10;2.10;;;4.30;99.90;;;;;;5056033;28;20049;-58
2022/09/29 04:43:29;;;;;;;3.42;1.90;;;4.30;99.90;;;;;;5050849;28;20124;-58
2022/09/29 04:46:02;;;;;;;3.30;1.50;;;4.30;99.90;;;;;;5044934;28;20029;-58
2022/09/29 04:48:27;;;;;;;3.15;1.98;;;4.30;99.90;;;;;;5048636;28;20047;-58
2022/09/29 04:50:53;;;;;;;2.83;1.95;;;4.20;99.90;;;;;;5047680;28;20033;-58
2022/09/29 04:53:19;;;;;;;5.53;2.40;;;4.20;99.90;;;;;;5049151;28;20029;-57
2022/09/29 04:55:45;;;;;;;2.63;1.70;;;4.10;99.90;;;;;;5040403;28;20104;-57
2022/09/29 04:58:10;;;;;;;3.45;2.20;;;4.00;99.90;;;;;;5053502;28;20028;-57
2022/09/29 05:00:36;;;;;;;3.63;1.75;;;4.00;99.90;;;;;;5045658;28;20041;-60
2022/09/29 05:03:02;;;;;;;3.25;1.70;;;4.00;99.90;;;;;;5045212;28;20029;-58
2022/09/29 05:05:28;;;;;;;4.10;2.20;;;4.00;99.90;;;;;;5055415;28;20052;-58
2022/09/29 05:07:53;;;;;;;3.00;2.10;;;4.10;99.90;;;;;;5053684;28;20124;-58
2022/09/29 05:10:23;;;;;;;4.43;2.30;;;4.00;99.90;;;;;;5054645;28;20415;-58
2022/09/29 05:12:49;;;;;;;4.05;2.03;;;4.00;99.90;;;;;;5049984;28;20017;-57
2022/09/29 05:15:17;;;;;;;3.28;2.15;;;4.00;99.90;;;;;;5047276;28;20021;-58
2022/09/29 05:17:43;;;;;;;2.83;2.03;;;3.90;99.90;;;;;;5047997;28;20021;-58
2022/09/29 05:20:09;;;;;;;2.33;1.77;;;4.00;99.90;;;;;;5057380;28;20029;-58
2022/09/29 05:22:35;;;;;;;2.00;1.80;;;3.90;99.90;;;;;;5052343;28;20029;-58
2022/09/29 05:25:01;;;;;;;3.33;1.85;;;3.80;99.90;;;;;;5054481;28;20070;-58
2022/09/29 05:27:26;;;;;;;9.07;1.75;;;3.60;99.90;;;;;;5065501;28;20051;-58
2022/09/29 05:29:53;;;;;;;4.70;1.88;;;3.60;99.90;;;;;;5062017;28;20452;-58
2022/09/29 05:32:19;;;;;;;2.55;2.10;;;3.60;99.90;;;;;;5043162;28;20388;-58
2022/09/29 05:34:45;;;;;;;2.65;1.77;;;3.60;99.90;;;;;;5050927;28;20025;-60
2022/09/29 05:37:11;;;;;;;2.63;1.83;;;3.60;99.90;;;;;;5049045;28;20032;-59
2022/09/29 05:39:37;;;;;;;4.72;2.22;;;3.60;99.90;;;;;;5051716;28;20563;-59
2022/09/29 05:42:05;;;;;;;3.83;1.50;;;3.70;99.90;;;;;;5050270;28;20121;-59
2022/09/29 05:44:32;;;;;;;4.18;2.22;;;3.70;99.90;;;;;;5051983;28;20040;-59
2022/09/29 05:46:58;;;;;;;3.83;1.80;;;3.80;99.90;;;;;;5050938;28;20428;-59
2022/09/29 05:49:28;;;;;;;3.53;2.40;;;3.70;99.90;;;;;;5055369;28;20031;-59
2022/09/29 05:51:53;;;;;;;4.10;2.13;;;3.80;99.90;;;;;;5048802;28;20040;-60
2022/09/29 05:54:20;;;;;;;3.97;2.05;;;3.70;99.90;;;;;;5048871;28;20326;-59
2022/09/29 05:56:46;;;;;;;3.47;2.40;;;3.70;99.90;;;;;;5052075;28;20029;-59
2022/09/29 05:59:12;;;;;;;3.92;2.22;;;3.70;99.90;;;;;;5049228;28;20037;-60
2022/09/29 06:01:37;;;;;;;4.75;1.83;;;3.70;99.90;;;;;;5051521;28;20396;-59
2022/09/29 06:04:03;;;;;;;2.20;1.67;;;3.70;99.90;;;;;;5050912;28;20380;-59
2022/09/29 06:06:29;;;;;;;2.95;1.52;;;3.60;99.90;;;;;;5040238;28;20517;-60
2022/09/29 06:08:57;;;;;;;4.35;2.05;;;3.60;99.90;;;;;;5053984;28;20032;-60
2022/09/29 06:11:26;;;;;;;3.60;2.38;;;3.60;99.90;;;;;;5049444;28;20036;-59
2022/09/29 06:13:56;;;;;;;4.22;2.08;;;3.70;99.90;;;;;;5066508;28;20060;-59
2022/09/29 06:16:25;;;;;;;3.45;2.17;;;3.80;99.90;;;;;;5053524;28;20066;-58
2022/09/29 06:18:52;;;;;;;5.10;2.30;;;3.80;99.90;;;;;;5057332;28;20036;-58
2022/09/29 06:21:22;;;;;;;3.78;2.40;;;3.80;99.90;;;;;;5049875;28;20037;-58
2022/09/29 06:23:48;;;;;;;7.97;2.00;;;3.90;99.90;;;;;;5054583;28;20021;-58
2022/09/29 06:26:16;;;;;;;5.30;2.58;;;4.10;99.90;;;;;;5049508;28;20408;-59
2022/09/29 06:28:42;;;;;;;3.92;1.98;;;4.40;99.90;;;;;;5059865;28;20016;-59
2022/09/29 06:31:17;;;;;;;5.63;2.33;;;4.60;99.90;;;;;;5057408;28;20055;-59
2022/09/29 06:33:43;;;;;;;3.20;2.80;;;4.60;99.90;;;;;;5045576;28;20043;-58
2022/09/29 06:38:56;;;;;;;3.55;2.58;;;4.70;99.90;;;;;;5039807;28;20033;-58
2022/09/29 06:41:22;;;;;;;3.38;2.40;;;4.90;99.90;;;;;;5050066;28;20051;-58
2022/09/29 06:43:47;;;;;;;6.35;3.22;;;5.00;99.90;;;;;;5049669;28;20017;-59
2022/09/29 06:46:15;;;;;;;4.20;2.53;;;4.90;99.90;;;;;;5049518;28;20566;-59
2022/09/29 06:48:41;;;;;;;2.90;1.98;;;5.00;99.90;;;;;;5050017;28;20021;-58
2022/09/29 06:51:07;;;;;;;8.10;2.90;;;5.00;99.90;;;;;;5048508;28;20099;-57
2022/09/29 06:53:33;;;;;;;6.25;2.90;;;5.00;99.90;;;;;;5050344;28;20059;-59
2022/09/29 06:56:02;;;;;;;4.65;3.03;;;5.10;99.90;;;;;;5046842;28;20056;-59
2022/09/29 06:58:28;;;;;;;4.18;2.33;;;5.10;99.90;;;;;;5055553;28;20083;-58
2022/09/29 07:00:54;;;;;;;4.75;2.47;;;5.20;99.90;;;;;;5052074;28;20040;-59
2022/09/29 07:03:21;;;;;;;5.95;2.95;;;5.20;99.90;;;;;;5039452;28;20469;-59
2022/09/29 07:05:47;;;;;;;7.35;2.85;;;5.20;99.90;;;;;;5039019;28;20029;-58
2022/09/29 07:08:13;;;;;;;6.07;2.20;;;5.30;99.90;;;;;;5040561;28;20020;-59
2022/09/29 07:10:40;;;;;;;4.03;3.28;;;5.40;99.90;;;;;;5042195;28;20025;-58
2022/09/29 07:13:07;;;;;;;5.30;3.03;;;5.50;99.90;;;;;;5038720;28;20017;-58
2022/09/29 07:15:34;;;;;;;6.05;2.72;;;5.60;99.90;;;;;;5050989;28;20025;-58
2022/09/29 07:18:00;;;;;;;7.28;2.80;;;5.80;99.90;;;;;;5036954;28;20087;-58
2022/09/29 07:20:28;;;;;;;9.05;2.42;;;5.90;99.90;;;;;;5043189;28;20041;-60
2022/09/29 07:22:54;;;;;;;8.77;3.03;;;6.00;99.90;;;;;;5052980;28;20055;-60
2022/09/29 07:25:20;;;;;;;5.38;3.53;;;6.20;99.90;;;;;;5040805;28;20052;-59
2022/09/29 07:27:47;;;;;;;4.55;3.08;;;6.30;99.90;;;;;;5038405;28;20021;-59
2022/09/29 07:30:13;;;;;;;7.25;2.78;;;6.40;99.90;;;;;;5038653;28;20022;-60
2022/09/29 07:32:39;;;;;;;5.32;2.90;;;6.50;99.90;;;;;;5044088;28;20029;-59
2022/09/29 07:35:06;;;;;;;4.15;2.33;;;6.60;99.90;;;;;;5052320;28;20033;-59
2022/09/29 07:37:31;;;;;;;5.95;3.03;;;6.70;99.90;;;;;;5043102;28;20033;-59
2022/09/29 07:39:58;;;;;;;6.78;3.10;;;6.90;99.90;;;;;;5049681;28;20090;-59
2022/09/29 07:42:23;;;;;;;11.07;2.55;;;6.90;99.90;;;;;;5050127;28;20033;-59
2022/09/29 07:44:49;;;;;;;4.30;1.85;;;7.00;99.90;;;;;;5044115;28;20358;-59
2022/09/29 07:47:15;;;;;;;3.25;2.10;;;7.10;99.90;;;;;;5037124;28;20502;-60
2022/09/29 07:49:41;;;;;;;3.55;1.80;;;7.30;99.90;;;;;;5041985;28;20506;-59
2022/09/29 07:52:07;;;;;;;3.63;2.30;;;7.40;99.90;;;;;;5038977;28;20045;-59
2022/09/29 07:54:33;;;;;;;4.10;1.75;;;7.60;99.90;;;;;;5040130;28;20109;-59
2022/09/29 07:56:59;;;;;;;2.83;1.35;;;7.70;99.90;;;;;;5037349;28;20060;-60
2022/09/29 07:59:26;;;;;;;3.78;1.65;;;7.90;99.90;;;;;;5048640;28;20033;-59
2022/09/29 08:01:52;;;;;;;3.00;1.20;;;8.00;99.90;;;;;;5048521;28;20033;-59
2022/09/29 08:04:18;;;;;;;1.33;1.00;;;8.10;99.90;;;;;;5046076;28;20387;-58
2022/09/29 08:06:45;;;;;;;1.88;1.35;;;8.20;99.90;;;;;;5048370;28;20389;-59
2022/09/29 08:09:11;;;;;;;3.47;1.20;;;8.30;99.90;;;;;;5047202;28;20536;-60
2022/09/29 08:11:39;;;;;;;3.50;1.63;;;8.40;99.90;;;;;;5049779;28;20039;-60
2022/09/29 08:14:06;;;;;;;2.30;1.10;;;8.40;99.90;;;;;;5045763;28;20032;-59
2022/09/29 08:16:32;;;;;;;2.38;0.98;;;8.50;99.90;;;;;;5048312;28;20033;-60
2022/09/29 08:18:58;;;;;;;3.10;0.85;;;8.50;99.90;;;;;;5047878;28;20059;-59
2022/09/29 08:21:24;;;;;;;1.20;0.95;;;8.50;99.90;;;;;;5049811;28;20041;-59
2022/09/29 08:23:50;;;;;;;2.53;1.65;;;8.60;99.90;;;;;;5057159;28;20061;-59
2022/09/29 08:26:20;;;;;;;2.20;1.10;;;8.70;99.90;;;;;;5044936;28;20568;-59
2022/09/29 08:28:46;;;;;;;4.30;1.45;;;8.70;99.90;;;;;;5044494;28;20036;-59
2022/09/29 08:31:13;;;;;;;1.88;1.65;;;8.80;99.90;;;;;;5034642;28;20385;-60
2022/09/29 08:33:39;;;;;;;1.35;0.90;;;8.90;99.90;;;;;;5048571;28;20020;-59
2022/09/29 08:36:24;;;;;;;3.67;1.40;;;9.00;99.90;;;;;;5059049;28;20033;-60
2022/09/29 08:38:52;;;;;;;1.67;1.05;;;9.10;99.90;;;;;;5046884;28;20032;-59
2022/09/29 08:41:21;;;;;;;2.40;1.25;;;9.10;99.90;;;;;;5037039;28;20041;-59
2022/09/29 08:43:51;;;;;;;3.08;1.00;;;9.30;99.90;;;;;;5052825;28;20029;-59
2022/09/29 08:46:27;;;;;;;4.95;0.85;;;9.40;99.90;;;;;;5052436;28;20040;-59
2022/09/29 08:48:55;;;;;;;6.47;2.40;;;9.50;99.90;;;;;;5048772;28;20029;-60
2022/09/29 08:51:26;;;;;;;3.80;1.60;;;9.60;99.90;;;;;;5047115;28;20013;-59
2022/09/29 08:53:57;;;;;;;3.83;1.60;;;9.70;99.90;;;;;;5050278;28;20058;-58
2022/09/29 08:56:25;;;;;;;3.03;1.70;;;9.70;99.90;;;;;;5040420;28;20048;-60
2022/09/29 08:58:51;;;;;;;2.63;1.55;;;9.80;99.90;;;;;;5061327;28;20476;-60
2022/09/29 09:01:26;;;;;;;3.97;1.73;;;9.80;99.90;;;;;;5056404;28;20053;-59
2022/09/29 09:04:14;;;;;;;5.47;2.60;;;9.90;99.90;;;;;;5066451;28;20662;-58
2022/09/29 09:06:46;;;;;;;4.75;2.10;;;10.00;99.90;;;;;;5051275;28;20481;-59
2022/09/29 09:09:40;;;;;;;3.95;1.92;;;10.10;99.90;;;;;;5050674;28;20016;-58
2022/09/29 09:12:28;;;;;;;4.50;2.08;;;10.20;99.90;;;;;;5060933;28;20044;-58
2022/09/29 09:15:12;;;;;;;2.45;1.70;;;10.30;99.90;;;;;;5057402;28;20443;-59
2022/09/29 09:18:12;;;;;;;4.40;1.90;;;10.40;99.90;;;;;;5056800;28;20369;-58
2022/09/29 09:20:47;;;;;;;5.60;2.67;;;10.50;99.90;;;;;;5051324;28;20530;-59
2022/09/29 09:23:12;;;;;;;5.43;2.42;;;10.70;99.90;;;;;;5048565;28;20473;-59
2022/09/29 09:25:45;;;;;;;2.55;1.60;;;10.90;99.90;;;;;;5056168;28;20029;-59
2022/09/29 09:28:16;;;;;;;2.70;1.00;;;10.90;99.90;;;;;;5052159;28;20074;-59
2022/09/29 09:30:53;;;;;;;2.75;1.10;;;10.90;99.90;;;;;;5061193;28;20032;-58
2022/09/29 09:33:26;;;;;;;3.10;0.85;;;11.00;99.90;;;;;;5044792;28;20333;-59
2022/09/29 09:35:57;;;;;;;1.30;0.90;;;11.10;99.90;;;;;;5050793;28;20037;-60
2022/09/29 09:38:36;;;;;;;1.63;1.08;;;11.20;99.90;;;;;;5040814;28;20734;-60
2022/09/29 09:41:02;;;;;;;5.97;1.55;;;11.30;99.90;;;;;;5045033;28;20034;-59
2022/09/29 09:43:36;;;;;;;2.40;1.10;;;11.40;99.90;;;;;;5054075;28;20037;-60
2022/09/29 09:46:11;;;;;;;1.88;0.95;;;11.50;99.90;;;;;;5049911;28;20033;-60
2022/09/29 09:48:56;;;;;;;3.50;1.33;;;11.60;99.90;;;;;;5039333;28;20056;-60
2022/09/29 09:51:48;;;;;;;3.33;1.70;;;11.70;99.90;;;;;;5047779;28;20040;-60
2022/09/29 09:54:44;;;;;;;2.22;1.30;;;11.80;99.90;;;;;;5039964;28;20488;-60
2022/09/29 09:57:16;;;;;;;2.08;1.42;;;11.90;99.90;;;;;;5047211;28;20037;-59
2022/09/29 10:00:08;;;;;;;2.88;1.30;;;12.10;99.90;;;;;;5049995;28;20048;-59
2022/09/29 10:02:34;;;;;;;2.33;1.60;;;12.10;99.90;;;;;;5054363;28;20120;-59
2022/09/29 10:05:00;;;;;;;1.42;1.02;;;12.20;99.90;;;;;;5056600;28;20495;-58
2022/09/29 10:07:29;;;;;;;2.30;0.80;;;12.30;99.90;;;;;;5051019;28;20036;-58
2022/09/29 10:09:56;;;;;;;4.53;1.98;;;12.40;99.90;;;;;;5053352;28;20021;-58
2022/09/29 10:12:24;;;;;;;3.05;1.48;;;12.60;99.90;;;;;;5059179;28;20067;-59
2022/09/29 10:14:56;;;;;;;0.90;0.40;;;12.70;99.90;;;;;;5052716;28;20028;-58
2022/09/29 10:17:26;;;;;;;0.65;0.30;;;12.80;99.90;;;;;;5051263;28;20086;-58
2022/09/29 10:20:02;;;;;;;0.50;0.22;;;12.90;99.90;;;;;;5054201;28;20074;-59
2022/09/29 10:22:29;;;;;;;0.73;0.20;;;13.00;99.90;;;;;;5057132;28;20040;-60
2022/09/29 10:25:27;;;;;;;2.60;0.35;;;13.10;99.90;;;;;;5054543;28;20055;-59
2022/09/29 10:27:56;;;;;;;1.52;0.60;;;13.30;99.90;;;;;;5028987;28;20029;-58
2022/09/29 10:30:31;;;;;;;0.55;0.30;;;13.40;99.90;;;;;;5054292;28;20036;-60
2022/09/29 10:33:00;;;;;;;3.28;0.50;;;13.50;99.90;;;;;;5056876;28;20085;-59
2022/09/29 10:35:34;;;;;;;1.58;0.65;;;13.60;99.90;;;;;;5047267;28;20085;-59
2022/09/29 10:38:04;;;;;;;0.73;0.65;;;13.80;99.90;;;;;;5043841;28;20055;-60
2022/09/29 10:40:30;;;;;;;1.25;0.57;;;13.80;99.90;;;;;;5053341;28;20037;-61
2022/09/29 10:42:56;;;;;;;1.15;0.40;;;14.00;99.90;;;;;;5059397;28;20150;-60
2022/09/29 10:45:26;;;;;;;1.08;0.60;;;14.00;99.90;;;;;;5053437;28;20041;-60
2022/09/29 10:48:13;;;;;;;1.00;0.65;;;14.20;99.90;;;;;;5053000;28;20032;-59
2022/09/29 10:50:58;;;;;;;0.30;0.20;;;14.50;99.90;;;;;;5052608;28;20029;-60
2022/09/29 10:53:42;;;;;;;0.95;0.50;;;14.80;99.90;;;;;;5050289;28;20032;-59
2022/09/29 10:56:17;;;;;;;0.63;0.20;;;14.90;99.90;;;;;;5049829;28;20056;-58
2022/09/29 10:58:51;;;;;;;0.40;0.30;;;15.20;99.90;;;;;;5047133;28;20028;-59
2022/09/29 11:01:19;;;;;;;0.40;0.30;;;15.20;99.90;;;;;;5061877;28;20044;-58
2022/09/29 11:04:03;;;;;;;2.65;0.75;;;15.40;99.90;;;;;;5055922;28;20460;-60
2022/09/29 11:06:34;;;;;;;0.75;0.40;;;15.90;99.90;;;;;;5052602;28;20037;-59
2022/09/29 11:09:00;;;;;;;2.42;0.65;;;16.90;99.90;;;;;;5052963;28;20496;-59
2022/09/29 11:11:58;;;;;;;2.80;0.30;;;17.60;99.90;;;;;;5056094;28;20040;-59
2022/09/29 11:14:36;;;;;;;0.47;0.25;;;18.00;99.90;;;;;;5048514;28;20041;-59
2022/09/29 11:17:25;;;;;;;1.85;0.60;;;18.20;99.90;;;;;;5054778;28;20124;-60
2022/09/29 11:19:52;;;;;;;0.88;0.40;;;18.10;99.90;;;;;;5053872;28;20245;-61
2022/09/29 11:22:27;;;;;;;1.10;0.50;;;17.80;99.90;;;;;;5056958;28;20021;-59
2022/09/29 11:24:55;;;;;;;1.90;0.70;;;17.40;99.90;;;;;;5058927;28;20048;-60
2022/09/29 11:27:37;;;;;;;1.65;0.70;;;16.90;99.90;;;;;;5046150;28;20082;-60
2022/09/29 11:30:16;;;;;;;2.03;0.85;;;16.40;99.90;;;;;;5054936;28;20035;-60
2022/09/29 11:33:03;;;;;;;1.13;0.68;;;16.10;99.90;;;;;;5054899;28;20059;-60
2022/09/29 11:35:35;;;;;;;1.45;0.68;;;15.80;99.90;;;;;;5059312;28;20477;-61
2022/09/29 11:38:39;;;;;;;3.17;0.95;;;15.60;99.90;;;;;;5050258;28;20048;-60
2022/09/29 11:41:08;;;;;;;2.17;0.68;;;15.50;99.90;;;;;;5046207;28;20040;-60
2022/09/29 11:43:42;;;;;;;0.75;0.55;;;16.30;99.90;;;;;;5056392;28;20120;-59
2022/09/29 11:46:21;;;;;;;0.52;0.30;;;17.20;99.90;;;;;;5050568;28;20033;-59
2022/09/29 11:48:59;;;;;;;2.30;1.02;;;17.20;99.90;;;;;;5050813;28;20033;-59
2022/09/29 11:51:47;;;;;;;1.08;0.50;;;17.70;99.90;;;;;;5051229;28;20425;-60
2022/09/29 11:54:58;;;;;;;1.95;0.30;;;18.40;99.90;;;;;;5047860;28;20033;-60
2022/09/29 11:57:50;;;;;;;0.80;0.20;;;19.60;99.90;;;;;;5052106;28;20063;-60
2022/09/29 12:00:20;;;;;;;0.57;0.22;;;19.90;98.80;;;;;;5049703;28;20139;-60
2022/09/29 12:03:22;;;;;;;0.45;0.20;;;18.60;99.80;;;;;;5051472;28;20438;-61
2022/09/29 12:06:28;;;;;;;0.20;0.10;;;17.80;99.90;;;;;;5047065;28;20029;-58
2022/09/29 12:09:26;;;;;;;1.40;0.30;;;17.20;99.90;;;;;;5045506;28;20427;-60
2022/09/29 12:12:21;;;;;;;1.02;0.57;;;16.80;99.90;;;;;;5044283;28;20036;-58
2022/09/29 12:15:10;;;;;;;0.50;0.28;;;16.50;99.90;;;;;;5044215;28;20404;-59
2022/09/29 12:17:41;;;;;;;1.08;0.77;;;16.30;99.90;;;;;;5048582;28;20028;-59
2022/09/29 12:20:41;;;;;;;0.50;0.30;;;16.30;99.90;;;;;;5050849;28;20044;-60
2022/09/29 12:23:11;;;;;;;1.67;0.20;;;16.50;99.90;;;;;;5052555;28;20040;-59
2022/09/29 12:25:44;;;;;;;0.47;0.20;;;17.60;99.90;;;;;;5056482;28;20036;-59
2022/09/29 12:28:15;;;;;;;2.28;0.32;;;18.90;99.90;;;;;;5050529;28;20036;-59
2022/09/29 12:30:51;;;;;;;0.52;0.25;;;19.10;98.60;;;;;;5053470;28;20028;-58
2022/09/29 12:33:56;;;;;;;0.20;0.20;;;18.30;99.60;;;;;;5053735;28;20060;-59
2022/09/29 12:36:44;;;;;;;0.35;0.20;;;17.50;99.90;;;;;;5034804;28;20052;-60
2022/09/29 12:39:24;;;;;;;1.10;0.20;;;16.90;99.90;;;;;;5041731;28;20061;-59
2022/09/29 12:42:12;;;;;;;1.33;0.45;;;16.60;99.90;;;;;;5054786;28;20045;-60
2022/09/29 12:44:53;;;;;;;0.30;0.20;;;16.90;99.90;;;;;;5052977;28;20021;-60
2022/09/29 12:47:27;;;;;;;0.50;0.50;;;17.80;99.90;;;;;;5047472;28;20036;-58
2022/09/29 12:50:10;;;;;;;0.40;0.40;;;18.50;99.60;;;;;;5053222;28;20480;-59
2022/09/29 12:52:54;;;;;;;2.38;0.40;;;19.30;97.80;;;;;;5058855;28;20075;-59
2022/09/29 12:55:49;;;;;;;1.48;0.45;;;20.00;95.10;;;;;;5055992;28;20025;-58
2022/09/29 12:58:32;;;;;;;2.30;0.60;;;20.70;93.20;;;;;;5049252;28;20036;-59
2022/09/29 13:01:32;;;;;;;1.17;0.60;;;20.40;90.40;;;;;;5054203;28;20119;-60
2022/09/29 13:04:24;;;;;;;1.90;1.02;;;19.60;91.60;;;;;;5057461;28;20146;-59
2022/09/29 13:06:59;;;;;;;;;;;18.80;95.40;;;;;;5055623;28;20041;-60
2022/09/29 13:09:42;;;;;;;1.65;0.30;;;18.40;96.90;;;;;;5052384;28;19916;-59
2022/09/29 13:12:26;;;;;;;1.13;0.60;;;18.20;97.80;;;;;;5050510;28;20029;-59
2022/09/29 13:14:51;;;;;;;1.25;0.43;;;18.10;98.30;;;;;;5052121;28;20025;-59
2022/09/29 13:17:42;;;;;;;0.45;0.20;;;18.70;98.10;;;;;;5037901;28;20405;-60
2022/09/29 13:20:22;;;;;;;1.75;0.50;;;19.90;95.00;;;;;;5047783;28;20358;-60
2022/09/29 13:23:04;;;;;;;1.25;0.40;;;20.90;91.40;;;;;;5050797;28;20097;-59
2022/09/29 13:25:36;;;;;;;0.73;0.30;;;20.90;89.80;;;;;;5044557;28;20079;-60